createdAt,value
2023-05-08T00:01:44.566Z,16.10
2023-05-08T00:04:11.460Z,16.00
2023-05-08T00:06:38.177Z,16.00
2023-05-08T00:09:04.898Z,15.90
2023-05-08T00:11:31.567Z,16.00
2023-05-08T00:13:58.209Z,15.90
2023-05-08T00:16:24.998Z,15.90
2023-05-08T00:18:53.406Z,15.80
2023-05-08T00:21:20.244Z,15.70
2023-05-08T00:23:46.876Z,15.70
2023-05-08T00:26:13.544Z,15.70
2023-05-08T00:28:40.390Z,15.70
2023-05-08T00:31:07.058Z,15.70
2023-05-08T00:33:33.728Z,15.60
2023-05-08T00:36:01.955Z,15.70
2023-05-08T00:38:32.576Z,15.70
2023-05-08T00:40:59.947Z,15.70
2023-05-08T00:43:28.172Z,15.80
2023-05-08T00:45:56.149Z,15.80
2023-05-08T00:48:24.517Z,15.70
2023-05-08T00:50:53.328Z,15.70
2023-05-08T00:53:22.812Z,15.60
2023-05-08T00:55:51.658Z,15.60
2023-05-08T00:58:20.910Z,15.50
2023-05-08T01:00:48.304Z,15.50
2023-05-08T01:03:15.560Z,15.50
2023-05-08T01:05:43.620Z,15.50
2023-05-08T01:08:10.549Z,15.50
2023-05-08T01:10:48.116Z,15.50
2023-05-08T01:13:27.515Z,15.50
2023-05-08T01:16:03.250Z,15.40
2023-05-08T01:18:42.857Z,15.50
2023-05-08T01:21:32.284Z,15.40
2023-05-08T01:24:17.756Z,15.50
2023-05-08T01:27:15.356Z,15.40
2023-05-08T01:30:09.105Z,15.50
2023-05-08T01:32:46.637Z,15.50
2023-05-08T01:35:20.654Z,15.40
2023-05-08T01:37:58.786Z,15.30
2023-05-08T01:40:40.041Z,15.30
2023-05-08T01:43:30.062Z,15.30
2023-05-08T01:45:59.272Z,15.30
2023-05-08T01:48:38.960Z,15.30
2023-05-08T01:51:12.702Z,15.40
2023-05-08T01:53:44.880Z,15.30
2023-05-08T01:56:22.138Z,15.20
2023-05-08T01:58:52.886Z,15.20
2023-05-08T02:01:23.500Z,15.20
2023-05-08T02:03:51.752Z,15.20
2023-05-08T02:06:22.294Z,15.20
2023-05-08T02:08:50.042Z,15.20
2023-05-08T02:11:19.603Z,15.30
2023-05-08T02:13:48.688Z,15.30
2023-05-08T02:16:16.991Z,15.20
2023-05-08T02:18:50.978Z,15.10
2023-05-08T02:21:19.362Z,15.10
2023-05-08T02:23:47.681Z,15.10
2023-05-08T02:26:15.766Z,15.00
2023-05-08T02:28:43.267Z,15.00
2023-05-08T02:31:11.933Z,15.00
2023-05-08T02:33:41.779Z,15.00
2023-05-08T02:36:10.799Z,15.00
2023-05-08T02:38:39.677Z,15.10
2023-05-08T02:41:06.841Z,15.20
2023-05-08T02:43:33.820Z,15.20
2023-05-08T02:46:18.335Z,15.20
2023-05-08T02:49:01.192Z,15.20
2023-05-08T02:51:43.198Z,15.30
2023-05-08T02:54:14.349Z,15.40
2023-05-08T02:57:15.112Z,15.30
2023-05-08T03:00:00.768Z,15.20
2023-05-08T03:02:36.291Z,15.10
2023-05-08T03:05:18.910Z,15.10
2023-05-08T03:07:49.991Z,15.00
2023-05-08T03:10:21.565Z,15.00
2023-05-08T03:12:52.100Z,15.00
2023-05-08T03:15:27.144Z,14.90
2023-05-08T03:17:57.224Z,14.90
2023-05-08T03:20:25.970Z,14.80
2023-05-08T03:22:55.883Z,14.70
2023-05-08T03:25:23.779Z,14.80
2023-05-08T03:27:51.936Z,14.80
2023-05-08T03:30:20.683Z,14.80
2023-05-08T03:32:59.689Z,14.80
2023-05-08T03:35:27.790Z,14.80
2023-05-08T03:37:54.752Z,14.80
2023-05-08T03:40:22.142Z,14.80
2023-05-08T03:42:50.383Z,14.80
2023-05-08T03:45:18.963Z,14.80
2023-05-08T03:47:47.489Z,14.80
2023-05-08T03:50:16.132Z,14.80
2023-05-08T03:52:43.682Z,14.80
2023-05-08T03:55:10.384Z,14.80
2023-05-08T03:58:03.014Z,14.60
2023-05-08T04:00:39.217Z,14.70
2023-05-08T04:03:18.946Z,14.70
2023-05-08T04:06:11.048Z,14.70
2023-05-08T04:08:49.069Z,14.70
2023-05-08T04:11:21.912Z,14.70
2023-05-08T04:13:53.679Z,14.70
2023-05-08T04:16:27.028Z,14.60
2023-05-08T04:19:02.545Z,14.60
2023-05-08T04:21:34.157Z,14.60
2023-05-08T04:24:04.319Z,14.60
2023-05-08T04:26:31.630Z,14.60
2023-05-08T04:29:00.003Z,14.50
2023-05-08T04:31:27.489Z,14.50
2023-05-08T04:33:54.734Z,14.50
2023-05-08T04:36:21.942Z,14.40
2023-05-08T04:38:48.694Z,14.50
2023-05-08T04:41:15.986Z,14.40
2023-05-08T04:43:43.432Z,14.40
2023-05-08T04:46:10.385Z,14.40
2023-05-08T04:48:37.132Z,14.30
2023-05-08T04:51:04.041Z,14.30
2023-05-08T04:53:30.805Z,14.30
2023-05-08T04:55:58.453Z,14.30
2023-05-08T04:58:25.923Z,14.30
2023-05-08T05:00:53.491Z,14.20
2023-05-08T05:03:21.166Z,14.20
2023-05-08T05:05:47.866Z,14.20
2023-05-08T05:08:14.605Z,14.20
2023-05-08T05:10:41.355Z,14.20
2023-05-08T05:13:08.279Z,14.30
2023-05-08T05:15:35.252Z,14.30
2023-05-08T05:18:02.091Z,14.30
2023-05-08T05:20:29.332Z,14.30
2023-05-08T05:22:57.611Z,14.40
2023-05-08T05:25:24.957Z,14.40
2023-05-08T05:27:51.739Z,14.30
2023-05-08T05:30:18.552Z,14.40
2023-05-08T05:32:45.607Z,14.40
2023-05-08T05:35:12.586Z,14.40
2023-05-08T05:37:39.507Z,14.50
2023-05-08T05:40:07.028Z,14.50
2023-05-08T05:42:34.816Z,14.50
2023-05-08T05:45:01.947Z,14.50
2023-05-08T05:47:30.285Z,14.50
2023-05-08T05:49:58.832Z,14.50
2023-05-08T05:52:26.641Z,14.50
2023-05-08T05:54:53.353Z,14.60
2023-05-08T05:57:20.203Z,14.60
2023-05-08T05:59:46.980Z,14.60
2023-05-08T06:02:18.563Z,14.60
2023-05-08T06:04:45.689Z,14.50
2023-05-08T06:07:12.493Z,14.50
2023-05-08T06:09:39.312Z,14.50
2023-05-08T06:12:06.194Z,14.60
2023-05-08T06:14:32.895Z,14.60
2023-05-08T06:17:00.306Z,14.70
2023-05-08T06:19:28.506Z,14.70
2023-05-08T06:21:55.450Z,14.70
2023-05-08T06:24:22.208Z,14.80
2023-05-08T06:26:48.901Z,14.80
2023-05-08T06:29:15.552Z,14.90
2023-05-08T06:31:42.226Z,14.90
2023-05-08T06:34:09.163Z,14.90
2023-05-08T06:36:36.337Z,14.90
2023-05-08T06:39:06.117Z,14.90
2023-05-08T06:41:32.882Z,14.90
2023-05-08T06:43:59.552Z,14.90
2023-05-08T06:46:26.362Z,15.00
2023-05-08T06:48:53.066Z,15.00
2023-05-08T06:51:22.996Z,15.10
2023-05-08T06:53:49.726Z,15.10
2023-05-08T06:56:16.412Z,15.10
2023-05-08T06:58:46.313Z,15.10
2023-05-08T07:01:17.444Z,15.10
2023-05-08T07:03:44.168Z,15.10
2023-05-08T07:06:10.953Z,15.20
2023-05-08T07:08:37.758Z,15.10
2023-05-08T07:11:05.500Z,15.10
2023-05-08T07:13:32.364Z,15.10
2023-05-08T07:15:59.204Z,15.10
2023-05-08T07:18:26.018Z,15.10
2023-05-08T07:20:52.716Z,15.10
2023-05-08T07:23:19.893Z,15.10
2023-05-08T07:25:46.545Z,15.10
2023-05-08T07:28:13.778Z,15.10
2023-05-08T07:30:40.605Z,15.00
2023-05-08T07:33:07.309Z,15.00
2023-05-08T07:35:34.175Z,15.10
2023-05-08T07:38:00.864Z,15.10
2023-05-08T07:40:27.571Z,15.00
2023-05-08T07:42:54.271Z,14.90
2023-05-08T07:45:21.092Z,14.90
2023-05-08T07:47:52.268Z,15.00
2023-05-08T07:50:19.382Z,14.90
2023-05-08T07:52:49.222Z,14.90
2023-05-08T07:55:17.338Z,15.10
2023-05-08T07:57:44.604Z,15.10
2023-05-08T08:00:13.373Z,15.10
2023-05-08T08:02:44.237Z,15.20
2023-05-08T08:05:11.739Z,15.20
2023-05-08T08:07:39.013Z,15.30
2023-05-08T08:10:06.441Z,15.40
2023-05-08T08:12:33.181Z,15.70
2023-05-08T08:14:59.867Z,15.70
2023-05-08T08:17:28.718Z,15.70
2023-05-08T08:19:56.316Z,15.70
2023-05-08T08:22:23.924Z,15.60
2023-05-08T08:24:53.214Z,15.40
2023-05-08T08:27:21.495Z,15.40
2023-05-08T08:29:48.176Z,15.60
2023-05-08T08:32:14.875Z,15.70
2023-05-08T08:34:41.525Z,15.70
2023-05-08T08:37:08.197Z,15.90
2023-05-08T08:39:35.381Z,15.90
2023-05-08T08:42:02.239Z,15.90
2023-05-08T08:44:29.831Z,15.80
2023-05-08T08:46:58.545Z,15.70
2023-05-08T08:49:31.058Z,15.80
2023-05-08T08:52:14.233Z,15.90
2023-05-08T08:54:43.981Z,15.90
2023-05-08T08:57:12.846Z,15.90
2023-05-08T08:59:42.989Z,15.90
2023-05-08T09:02:12.586Z,15.90
2023-05-08T09:04:39.428Z,15.90
2023-05-08T09:07:08.515Z,16.00
2023-05-08T09:09:40.797Z,15.80
2023-05-08T09:12:07.977Z,15.80
2023-05-08T09:14:34.695Z,15.70
2023-05-08T09:17:01.791Z,15.70
2023-05-08T09:19:29.206Z,15.70
2023-05-08T09:22:00.414Z,15.80
2023-05-08T09:24:47.232Z,16.00
2023-05-08T09:27:24.883Z,16.10
2023-05-08T09:30:01.959Z,16.10
2023-05-08T09:32:30.587Z,16.30
2023-05-08T09:34:57.764Z,16.40
2023-05-08T09:37:25.828Z,16.60
2023-05-08T09:39:53.004Z,16.70
2023-05-08T09:42:19.894Z,16.70
2023-05-08T09:44:53.647Z,16.90
2023-05-08T09:47:24.500Z,17.00
2023-05-08T09:50:06.320Z,17.20
2023-05-08T09:52:34.096Z,17.30
2023-05-08T09:55:02.906Z,17.30
2023-05-08T09:57:31.559Z,17.30
2023-05-08T10:00:14.635Z,17.30
2023-05-08T10:02:53.299Z,17.30
2023-05-08T10:05:30.059Z,17.20
2023-05-08T10:07:58.423Z,17.30
2023-05-08T10:10:30.801Z,17.30
2023-05-08T10:12:58.593Z,17.20
2023-05-08T10:15:29.565Z,17.10
2023-05-08T10:18:07.681Z,17.10
2023-05-08T10:20:38.636Z,17.10
2023-05-08T10:23:11.287Z,17.10
2023-05-08T10:25:46.425Z,17.10
2023-05-08T10:28:18.248Z,17.00
2023-05-08T10:30:49.071Z,17.00
2023-05-08T10:33:21.308Z,17.10
2023-05-08T10:35:48.683Z,17.10
2023-05-08T10:38:16.914Z,16.90
2023-05-08T10:40:44.535Z,16.90
2023-05-08T10:43:12.209Z,16.80
2023-05-08T10:45:39.295Z,16.90
2023-05-08T10:48:13.319Z,16.90
2023-05-08T10:50:56.402Z,16.80
2023-05-08T10:53:49.031Z,16.80
2023-05-08T10:56:15.671Z,16.80
2023-05-08T10:58:42.500Z,16.70
2023-05-08T11:01:09.206Z,16.60
2023-05-08T11:03:47.416Z,16.70
2023-05-08T11:06:14.907Z,16.70
2023-05-08T11:08:52.958Z,16.70
2023-05-08T11:11:30.233Z,16.60
2023-05-08T11:14:09.918Z,16.50
2023-05-08T11:16:54.816Z,16.30
2023-05-08T11:19:23.345Z,16.30
2023-05-08T11:22:16.477Z,16.20
2023-05-08T11:24:57.923Z,16.30
2023-05-08T11:27:51.116Z,16.30
2023-05-08T11:30:32.842Z,16.30
2023-05-08T11:33:06.068Z,16.40
2023-05-08T11:35:47.855Z,16.40
2023-05-08T11:38:20.748Z,16.40
2023-05-08T11:40:54.454Z,16.40
2023-05-08T11:43:37.678Z,16.40
2023-05-08T11:46:16.742Z,16.60
2023-05-08T11:48:44.159Z,16.50
2023-05-08T11:51:13.443Z,16.60
2023-05-08T11:53:40.324Z,16.60
2023-05-08T11:56:08.032Z,16.60
2023-05-08T11:58:36.483Z,16.60
2023-05-08T12:01:03.488Z,16.50
2023-05-08T12:03:30.575Z,16.50
2023-05-08T12:05:58.841Z,16.40
2023-05-08T12:08:26.176Z,16.40
2023-05-08T12:10:54.444Z,16.30
2023-05-08T12:13:26.328Z,16.10
2023-05-08T12:16:02.145Z,16.10
2023-05-08T12:18:30.433Z,16.20
2023-05-08T12:20:59.068Z,16.10
2023-05-08T12:23:26.787Z,16.20
2023-05-08T12:25:55.343Z,16.20
2023-05-08T12:28:22.631Z,16.20
2023-05-08T12:30:50.022Z,16.20
2023-05-08T12:33:17.266Z,16.10
2023-05-08T12:35:44.093Z,16.10
2023-05-08T12:38:11.917Z,16.10
2023-05-08T12:40:44.163Z,16.20
2023-05-08T12:43:11.509Z,16.20
2023-05-08T12:45:40.022Z,16.20
2023-05-08T12:48:08.700Z,16.30
2023-05-08T12:50:37.978Z,16.30
2023-05-08T12:53:06.504Z,16.30
2023-05-08T12:55:34.700Z,16.30
2023-05-08T12:58:02.727Z,16.40
2023-05-08T13:00:36.908Z,16.40
2023-05-08T13:03:04.436Z,16.50
2023-05-08T13:05:31.495Z,16.50
2023-05-08T13:08:03.292Z,16.50
2023-05-08T13:10:52.547Z,16.50
2023-05-08T13:13:21.360Z,16.60
2023-05-08T13:15:49.933Z,16.60
2023-05-08T13:18:17.640Z,16.60
2023-05-08T13:20:44.782Z,16.70
2023-05-08T13:23:11.724Z,16.70
2023-05-08T13:25:39.812Z,16.80
2023-05-08T13:28:08.050Z,16.90
2023-05-08T13:30:36.521Z,16.80
2023-05-08T13:33:04.745Z,16.90
2023-05-08T13:35:32.746Z,16.90
2023-05-08T13:37:59.894Z,17.00
2023-05-08T13:40:26.736Z,17.00
2023-05-08T13:42:53.480Z,17.00
2023-05-08T13:45:20.411Z,17.10
2023-05-08T13:47:48.754Z,17.20
2023-05-08T13:50:17.158Z,17.20
2023-05-08T13:52:44.050Z,17.20
2023-05-08T13:55:12.739Z,17.20
2023-05-08T13:57:40.021Z,17.20
2023-05-08T14:00:07.801Z,17.30
2023-05-08T14:02:34.956Z,17.40
2023-05-08T14:05:01.960Z,17.40
2023-05-08T14:07:29.915Z,17.50
2023-05-08T14:09:56.778Z,17.60
2023-05-08T14:12:23.480Z,17.60
2023-05-08T14:14:50.207Z,17.60
2023-05-08T14:17:16.906Z,17.50
2023-05-08T14:19:43.785Z,17.60
2023-05-08T14:22:10.435Z,17.80
2023-05-08T14:24:37.209Z,17.80
2023-05-08T14:27:05.886Z,17.80
2023-05-08T14:29:34.020Z,17.80
2023-05-08T14:32:01.318Z,17.80
2023-05-08T14:34:28.229Z,17.90
2023-05-08T14:36:54.933Z,17.90
2023-05-08T14:39:21.899Z,17.90
2023-05-08T14:42:10.274Z,18.00
2023-05-08T14:44:35.510Z,18.00
2023-05-08T14:47:02.173Z,18.10
2023-05-08T14:52:16.448Z,18.30
2023-05-08T14:54:43.432Z,18.40
2023-05-08T14:57:10.247Z,18.40
2023-05-08T14:59:38.573Z,18.50
2023-05-08T15:02:06.998Z,18.50
2023-05-08T15:04:35.804Z,18.60
2023-05-08T15:07:02.476Z,18.60
2023-05-08T15:09:29.166Z,18.60
2023-05-08T15:11:56.043Z,18.60
2023-05-08T15:14:22.743Z,18.70
2023-05-08T15:16:49.539Z,18.80
2023-05-08T15:19:17.299Z,18.90
2023-05-08T15:21:43.954Z,18.90
2023-05-08T15:24:11.354Z,19.00
2023-05-08T15:26:38.020Z,19.10
2023-05-08T15:29:04.679Z,19.10
2023-05-08T15:31:31.457Z,19.20
2023-05-08T15:33:58.115Z,19.30
2023-05-08T15:36:25.381Z,19.30
2023-05-08T15:38:53.943Z,19.30
2023-05-08T15:41:21.706Z,19.20
2023-05-08T15:43:48.341Z,19.20
2023-05-08T15:46:15.034Z,19.20
2023-05-08T15:48:41.813Z,19.20
2023-05-08T15:51:08.447Z,19.20
2023-05-08T15:53:35.449Z,19.30
2023-05-08T15:58:54.879Z,19.50
2023-05-08T16:01:21.675Z,19.50
2023-05-08T16:03:49.125Z,19.50
2023-05-08T16:06:16.526Z,19.40
2023-05-08T16:08:44.078Z,19.30
2023-05-08T16:11:10.887Z,19.30
2023-05-08T16:13:37.650Z,19.30
2023-05-08T16:16:06.109Z,19.40
2023-05-08T16:18:32.895Z,19.50
2023-05-08T16:20:59.715Z,19.50
2023-05-08T16:23:26.842Z,19.50
2023-05-08T16:25:53.591Z,19.50
2023-05-08T16:28:20.784Z,19.40
2023-05-08T16:30:47.553Z,19.50
2023-05-08T16:33:14.294Z,19.50
2023-05-08T16:35:41.140Z,19.30
2023-05-08T16:38:08.092Z,19.30
2023-05-08T16:40:34.984Z,19.30
2023-05-08T16:43:01.885Z,19.30
2023-05-08T16:45:28.733Z,19.20
2023-05-08T16:47:55.685Z,19.20
2023-05-08T16:50:22.499Z,19.30
2023-05-08T16:52:49.530Z,19.30
2023-05-08T16:55:16.521Z,19.30
2023-05-08T16:57:43.620Z,19.30
2023-05-08T17:00:11.102Z,19.30
2023-05-08T17:02:39.017Z,19.20
2023-05-08T17:05:06.421Z,19.20
2023-05-08T17:07:33.237Z,19.00
2023-05-08T17:10:00.014Z,19.00
2023-05-08T17:12:26.813Z,18.90
2023-05-08T17:14:53.616Z,18.90
2023-05-08T17:17:21.484Z,18.80
2023-05-08T17:19:48.290Z,18.80
2023-05-08T17:22:15.435Z,18.80
2023-05-08T17:24:42.304Z,18.80
2023-05-08T17:27:09.164Z,18.70
2023-05-08T17:29:36.021Z,18.70
2023-05-08T17:32:03.015Z,18.70
2023-05-08T17:34:30.258Z,18.70
2023-05-08T17:36:57.330Z,18.70
2023-05-08T17:39:24.299Z,18.70
2023-05-08T17:41:51.708Z,18.70
2023-05-08T17:44:18.873Z,18.70
2023-05-08T17:46:46.252Z,18.70
2023-05-08T17:49:14.538Z,18.70
2023-05-08T17:51:42.005Z,18.60
2023-05-08T17:54:09.187Z,18.60
2023-05-08T17:56:36.123Z,18.60
2023-05-08T17:59:02.939Z,18.60
2023-05-08T18:01:29.967Z,18.50
2023-05-08T18:03:56.776Z,18.50
2023-05-08T18:06:23.601Z,18.40
2023-05-08T18:08:50.393Z,18.40
2023-05-08T18:11:25.074Z,18.30
2023-05-08T18:13:54.978Z,18.30
2023-05-08T18:16:22.713Z,18.30
2023-05-08T18:18:50.005Z,18.20
2023-05-08T18:21:16.948Z,18.20
2023-05-08T18:23:44.208Z,18.20
2023-05-08T18:26:15.057Z,18.30
2023-05-08T18:28:42.252Z,18.20
2023-05-08T18:31:09.067Z,18.10
2023-05-08T18:33:37.084Z,18.10
2023-05-08T18:36:05.494Z,18.00
2023-05-08T18:38:33.093Z,18.00
2023-05-08T18:41:02.814Z,18.00
2023-05-08T18:43:29.816Z,18.00
2023-05-08T18:45:57.999Z,18.00
2023-05-08T18:48:26.336Z,18.00
2023-05-08T18:50:53.082Z,17.90
2023-05-08T18:53:19.895Z,17.80
2023-05-08T18:55:46.663Z,17.80
2023-05-08T18:58:13.357Z,17.70
2023-05-08T19:00:40.259Z,17.60
2023-05-08T19:03:07.078Z,17.60
2023-05-08T19:05:33.829Z,17.60
2023-05-08T19:08:00.606Z,17.40
2023-05-08T19:10:27.405Z,17.50
2023-05-08T19:12:54.148Z,17.50
2023-05-08T19:15:20.964Z,17.50
2023-05-08T19:17:48.468Z,17.40
2023-05-08T19:20:15.708Z,17.30
2023-05-08T19:22:42.887Z,17.30
2023-05-08T19:25:09.977Z,17.20
2023-05-08T19:27:36.790Z,17.10
2023-05-08T19:30:04.119Z,17.10
2023-05-08T19:32:30.849Z,17.10
2023-05-08T19:34:57.622Z,17.10
2023-05-08T19:37:24.936Z,17.10
2023-05-08T19:39:51.768Z,17.10
2023-05-08T19:42:18.548Z,17.10
2023-05-08T19:44:45.360Z,17.10
2023-05-08T19:47:13.250Z,17.00
2023-05-08T19:49:40.094Z,17.00
2023-05-08T19:52:06.967Z,17.00
2023-05-08T19:54:33.907Z,16.90
2023-05-08T19:57:00.969Z,16.90
2023-05-08T19:59:28.025Z,16.80
2023-05-08T20:01:54.862Z,16.90
2023-05-08T20:04:21.784Z,16.80
2023-05-08T20:06:48.603Z,16.70
2023-05-08T20:09:15.415Z,16.60
2023-05-08T20:11:42.105Z,16.60
2023-05-08T20:14:08.879Z,16.60
2023-05-08T20:16:35.961Z,16.60
2023-05-08T20:19:02.972Z,16.60
2023-05-08T20:21:32.434Z,16.60
2023-05-08T20:23:59.844Z,16.70
2023-05-08T20:26:30.357Z,16.70
2023-05-08T20:28:57.347Z,16.60
2023-05-08T20:31:27.430Z,16.70
2023-05-08T20:33:54.589Z,16.60
2023-05-08T20:36:21.346Z,16.60
2023-05-08T20:38:48.047Z,16.60
2023-05-08T20:41:15.171Z,16.60
2023-05-08T20:43:41.902Z,16.70
2023-05-08T20:46:08.779Z,16.70
2023-05-08T20:48:36.654Z,16.60
2023-05-08T20:51:03.603Z,16.60
2023-05-08T20:53:30.499Z,16.50
2023-05-08T20:56:04.872Z,16.50
2023-05-08T20:58:31.900Z,16.40
2023-05-08T21:00:58.720Z,16.50
2023-05-08T21:03:25.583Z,16.50
2023-05-08T21:05:52.348Z,16.50
2023-05-08T21:08:26.468Z,16.40
2023-05-08T21:10:53.271Z,16.40
2023-05-08T21:13:20.168Z,16.40
2023-05-08T21:15:52.742Z,16.40
2023-05-08T21:18:19.520Z,16.40
2023-05-08T21:20:49.974Z,16.30
2023-05-08T21:23:17.769Z,16.20
2023-05-08T21:25:49.138Z,16.20
2023-05-08T21:28:16.418Z,16.10
2023-05-08T21:30:44.223Z,16.20
2023-05-08T21:33:13.496Z,16.20
2023-05-08T21:36:48.136Z,16.20
2023-05-08T22:06:04.727Z,16.10
2023-05-08T22:10:02.854Z,16.10
2023-05-08T22:12:29.554Z,16.00
2023-05-08T22:14:56.159Z,15.90
2023-05-08T22:17:22.847Z,16.00
2023-05-08T22:19:49.476Z,15.90
2023-05-08T22:22:16.289Z,15.90
2023-05-08T22:24:42.859Z,15.90
2023-05-08T22:27:09.460Z,15.90
2023-05-08T22:29:36.110Z,15.90
2023-05-08T22:32:03.321Z,15.90
2023-05-08T22:34:29.975Z,15.90
2023-05-08T22:36:56.544Z,15.90
2023-05-08T22:39:23.129Z,15.90
2023-05-08T22:41:50.046Z,15.90
2023-05-08T22:44:16.802Z,15.90
2023-05-08T22:46:43.686Z,15.80
2023-05-08T22:49:10.433Z,15.80
2023-05-08T22:51:37.119Z,15.70
2023-05-08T22:54:03.850Z,15.80
2023-05-08T22:56:30.588Z,15.80
2023-05-08T22:58:57.242Z,15.80
2023-05-08T23:01:23.876Z,15.70
2023-05-08T23:03:52.225Z,15.70
2023-05-08T23:06:18.895Z,15.70
2023-05-08T23:08:45.962Z,15.70
2023-05-08T23:11:12.627Z,15.80
2023-05-08T23:13:39.213Z,15.70
2023-05-08T23:16:06.554Z,15.70
2023-05-08T23:18:34.058Z,15.70
2023-05-08T23:21:07.668Z,15.60
2023-05-08T23:23:34.998Z,15.70
2023-05-08T23:26:04.756Z,15.60
2023-05-08T23:28:33.322Z,15.60
2023-05-08T23:31:00.463Z,15.70
2023-05-08T23:33:29.421Z,15.60
2023-05-08T23:35:57.539Z,15.60
2023-05-08T23:38:24.306Z,15.60
2023-05-08T23:40:51.496Z,15.70
2023-05-08T23:43:18.320Z,15.60
2023-05-08T23:45:45.058Z,15.60
2023-05-08T23:48:11.674Z,15.60
2023-05-08T23:50:38.287Z,15.60
2023-05-08T23:53:04.917Z,15.60
2023-05-08T23:55:31.533Z,15.60
2023-05-08T23:57:58.344Z,15.60
